createdAt,value
2022-11-14T05:00:29.621Z,36.20
2022-11-14T05:03:00.746Z,36.30
2022-11-14T05:05:28.922Z,36.80
2022-11-14T05:07:57.095Z,36.10
2022-11-14T05:10:25.230Z,33.10
2022-11-14T05:12:55.291Z,31.60
2022-11-14T05:15:23.897Z,26.00
2022-11-14T05:17:53.891Z,19.40
2022-11-14T05:20:22.105Z,14.70
2022-11-14T05:22:55.183Z,10.20
2022-11-14T05:25:24.343Z,2.10
2022-11-14T05:27:52.673Z,1.00
2022-11-14T05:30:21.588Z,1.00
2022-11-14T05:32:49.832Z,1.00
2022-11-14T05:35:19.326Z,1.00
2022-11-14T05:37:47.574Z,1.00
2022-11-14T05:40:16.971Z,1.00
2022-11-14T05:42:45.126Z,1.00
2022-11-14T05:45:13.365Z,1.00
2022-11-14T05:47:41.727Z,1.00
2022-11-14T05:50:11.201Z,1.00
2022-11-14T05:52:40.764Z,1.00
2022-11-14T05:55:10.198Z,1.00
2022-11-14T05:57:38.376Z,1.00
2022-11-14T06:00:09.220Z,1.00
2022-11-14T06:02:37.402Z,1.00
2022-11-14T06:05:07.673Z,1.00
2022-11-14T06:07:35.882Z,1.00
2022-11-14T06:10:06.075Z,1.00
2022-11-14T06:12:34.424Z,1.00
2022-11-14T06:15:03.526Z,1.00
2022-11-14T06:17:31.736Z,1.00
2022-11-14T06:19:59.931Z,1.00
2022-11-14T06:22:28.152Z,1.00
2022-11-14T06:24:56.355Z,1.00
2022-11-14T06:27:25.931Z,1.00
2022-11-14T06:29:54.101Z,1.00
2022-11-14T06:32:22.377Z,1.00
2022-11-14T06:34:50.610Z,1.00
2022-11-14T06:37:18.820Z,1.00
2022-11-14T06:39:46.999Z,1.00
2022-11-14T06:42:17.525Z,1.00
2022-11-14T06:44:47.087Z,1.00
2022-11-14T06:47:15.267Z,1.00
2022-11-14T06:49:43.835Z,1.00
2022-11-14T06:52:12.088Z,1.00
2022-11-14T06:54:40.238Z,1.00
2022-11-14T06:57:08.531Z,1.00
2022-11-14T06:59:36.687Z,1.00
2022-11-14T07:02:06.308Z,1.00
2022-11-14T07:04:34.948Z,1.00
2022-11-14T07:07:03.183Z,1.00
2022-11-14T07:09:31.456Z,1.00
2022-11-14T07:11:59.700Z,1.00
2022-11-14T07:14:28.691Z,1.00
2022-11-14T07:16:57.092Z,1.00
2022-11-14T07:19:26.901Z,1.00
2022-11-14T07:21:55.068Z,1.00
2022-11-14T07:24:23.567Z,1.00
2022-11-14T07:26:51.747Z,1.00
2022-11-14T07:29:19.838Z,1.00
2022-11-14T07:31:47.990Z,1.00
2022-11-14T07:34:16.150Z,1.00
2022-11-14T07:36:46.026Z,1.00
2022-11-14T07:39:14.358Z,1.00
2022-11-14T07:41:42.532Z,1.00
2022-11-14T07:44:10.958Z,1.00
2022-11-14T07:46:39.925Z,1.00
2022-11-14T07:49:08.106Z,1.00
2022-11-14T07:51:37.434Z,1.00
2022-11-14T07:54:07.180Z,1.00
2022-11-14T07:56:35.315Z,1.00
2022-11-14T07:59:03.525Z,1.00
2022-11-14T08:01:31.824Z,1.00
2022-11-14T08:04:00.147Z,1.00
2022-11-14T08:06:28.599Z,1.00
2022-11-14T08:08:56.913Z,1.00
2022-11-14T08:11:40.362Z,1.00
2022-11-14T08:14:08.972Z,1.00
2022-11-14T08:16:37.185Z,1.00
2022-11-14T08:19:05.347Z,1.00
2022-11-14T08:21:33.630Z,1.00
2022-11-14T08:24:02.028Z,1.00
2022-11-14T08:26:34.299Z,1.00
2022-11-14T08:29:03.884Z,1.00
2022-11-14T08:31:32.094Z,1.00
2022-11-14T08:34:00.279Z,1.00
2022-11-14T08:36:28.876Z,1.00
2022-11-14T08:39:01.611Z,1.00
2022-11-14T08:41:32.024Z,1.00
2022-11-14T08:44:00.182Z,1.00
2022-11-14T08:46:28.401Z,1.00
2022-11-14T08:48:56.689Z,1.00
2022-11-14T08:51:24.916Z,1.00
2022-11-14T08:53:53.116Z,1.00
2022-11-14T08:56:21.585Z,1.00
2022-11-14T08:58:51.064Z,1.00
2022-11-14T09:01:19.219Z,1.00
2022-11-14T09:03:47.585Z,1.00
2022-11-14T09:06:16.372Z,1.00
2022-11-14T09:08:44.504Z,1.00
2022-11-14T09:11:15.477Z,1.00
2022-11-14T09:13:47.226Z,1.00
2022-11-14T09:16:16.898Z,1.00
2022-11-14T09:18:45.102Z,1.00
2022-11-14T09:21:13.459Z,1.00
2022-11-14T09:23:41.776Z,1.00
2022-11-14T09:26:11.468Z,1.00
2022-11-14T09:28:39.735Z,1.00
2022-11-14T09:31:11.641Z,1.00
2022-11-14T09:33:41.416Z,1.00
2022-11-14T09:36:15.778Z,1.00
2022-11-14T09:38:44.480Z,1.00
2022-11-14T09:41:26.164Z,1.00
2022-11-14T09:44:23.947Z,1.00
2022-11-14T09:47:02.405Z,1.00
2022-11-14T09:49:40.428Z,1.00
2022-11-14T09:52:22.997Z,1.00
2022-11-14T09:54:57.313Z,1.00
2022-11-14T09:57:27.775Z,1.00
2022-11-14T09:59:57.475Z,1.00
2022-11-14T10:02:41.367Z,1.00
2022-11-14T10:05:40.916Z,1.00
2022-11-14T10:08:30.473Z,1.00
2022-11-14T10:11:06.959Z,1.00
2022-11-14T10:14:23.959Z,1.00
2022-11-14T10:17:10.968Z,1.00
2022-11-14T10:19:52.837Z,1.00
2022-11-14T10:22:45.351Z,1.00
2022-11-14T10:25:27.044Z,1.00
2022-11-14T10:28:20.544Z,1.00
2022-11-14T10:30:58.294Z,1.00
2022-11-14T10:33:53.272Z,1.00
2022-11-14T10:36:46.833Z,1.00
2022-11-14T10:39:24.379Z,1.00
2022-11-14T10:42:03.211Z,1.00
2022-11-14T10:44:43.043Z,1.00
2022-11-14T10:47:17.327Z,1.00
2022-11-14T10:49:52.196Z,1.00
2022-11-14T10:52:27.545Z,1.00
2022-11-14T10:55:04.392Z,1.00
2022-11-14T10:57:34.150Z,1.00
2022-11-14T11:00:02.349Z,1.00
2022-11-14T11:02:52.106Z,1.00
2022-11-14T11:05:23.686Z,1.00
2022-11-14T11:08:36.270Z,1.00
2022-11-14T11:11:18.535Z,1.00
2022-11-14T11:13:56.042Z,1.00
2022-11-14T11:16:26.600Z,1.00
2022-11-14T11:18:54.861Z,1.00
2022-11-14T11:21:24.684Z,1.00
2022-11-14T11:23:55.559Z,1.00
2022-11-14T11:26:28.310Z,1.00
2022-11-14T11:29:07.403Z,1.00
2022-11-14T11:31:52.720Z,1.00
2022-11-14T11:34:26.600Z,1.00
2022-11-14T11:37:03.825Z,1.00
2022-11-14T11:39:41.205Z,1.00
2022-11-14T11:42:19.407Z,1.00
2022-11-14T11:44:54.674Z,1.00
2022-11-14T11:47:23.707Z,1.00
2022-11-14T11:49:54.784Z,1.00
2022-11-14T11:52:35.435Z,1.00
2022-11-14T11:55:18.389Z,1.00
2022-11-14T11:57:57.822Z,1.00
2022-11-14T12:00:26.376Z,1.00
2022-11-14T12:02:55.888Z,1.00
2022-11-14T12:05:35.400Z,1.00
2022-11-14T12:08:09.576Z,1.00
2022-11-14T12:10:43.129Z,1.00
2022-11-14T12:13:49.947Z,1.00
2022-11-14T12:17:00.042Z,1.00
2022-11-14T12:20:15.733Z,1.00
2022-11-14T12:23:13.648Z,1.00
2022-11-14T12:26:06.666Z,1.00
2022-11-14T12:29:02.370Z,1.00
2022-11-14T12:31:36.312Z,1.00
2022-11-14T12:34:15.582Z,1.00
2022-11-14T12:36:46.708Z,1.00
2022-11-14T12:39:26.664Z,1.00
2022-11-14T12:42:04.227Z,1.00
2022-11-14T12:44:39.950Z,1.00
2022-11-14T12:47:17.754Z,1.00
2022-11-14T12:50:06.283Z,1.00
2022-11-14T12:52:53.964Z,1.00
2022-11-14T12:56:08.862Z,1.00
2022-11-14T12:59:11.855Z,1.00
2022-11-14T13:02:00.408Z,1.00
2022-11-14T13:04:45.506Z,1.00
2022-11-14T13:07:34.546Z,1.00
2022-11-14T13:10:14.838Z,1.00
2022-11-14T13:13:15.339Z,1.00
2022-11-14T13:16:09.817Z,1.00
2022-11-14T13:19:12.140Z,1.00
2022-11-14T13:22:00.553Z,1.00
2022-11-14T13:25:12.705Z,1.00
2022-11-14T13:31:07.189Z,1.00
2022-11-14T13:33:44.551Z,1.00
2022-11-14T13:36:23.444Z,1.00
2022-11-14T13:39:24.558Z,1.00
2022-11-14T13:42:46.610Z,1.00
2022-11-14T13:45:56.628Z,1.00
2022-11-14T13:49:11.298Z,1.00
2022-11-14T13:51:44.211Z,1.00
2022-11-14T13:54:18.017Z,1.00
2022-11-14T13:57:04.110Z,1.00
2022-11-14T13:59:57.929Z,1.00
2022-11-14T14:03:05.714Z,1.00
2022-11-14T14:06:05.874Z,1.00
2022-11-14T14:08:58.820Z,1.00
2022-11-14T14:11:53.040Z,1.00
2022-11-14T14:14:48.878Z,1.00
2022-11-14T14:17:28.622Z,1.00
2022-11-14T14:20:17.592Z,1.00
2022-11-14T14:23:02.685Z,1.00
2022-11-14T14:25:43.393Z,1.00
2022-11-14T14:28:25.258Z,1.00
2022-11-14T14:31:05.513Z,1.00
2022-11-14T14:33:42.489Z,1.00
2022-11-14T14:36:25.230Z,1.00
2022-11-14T14:39:18.575Z,1.00
2022-11-14T14:41:48.770Z,1.00
2022-11-14T14:44:26.407Z,1.00
2022-11-14T14:46:56.307Z,1.00
2022-11-14T14:49:29.116Z,1.00
2022-11-14T14:51:58.943Z,1.00
2022-11-14T14:54:30.759Z,1.00
2022-11-14T14:57:01.332Z,1.00
2022-11-14T14:59:32.018Z,1.00
2022-11-14T15:02:00.390Z,1.00
2022-11-14T15:04:30.939Z,1.00
2022-11-14T15:06:59.424Z,1.00
2022-11-14T15:09:31.313Z,1.00
2022-11-14T15:12:02.794Z,1.00
2022-11-14T15:14:36.307Z,1.00
2022-11-14T15:17:05.960Z,1.00
2022-11-14T15:19:41.924Z,1.00
2022-11-14T15:22:26.288Z,1.00
2022-11-14T15:25:21.742Z,1.00
2022-11-14T15:27:54.275Z,1.00
2022-11-14T15:30:25.806Z,1.00
2022-11-14T15:32:57.052Z,1.00
2022-11-14T15:35:36.120Z,1.00
2022-11-14T15:38:42.143Z,1.00
2022-11-14T15:41:29.683Z,1.00
2022-11-14T15:44:08.431Z,1.00
2022-11-14T15:46:44.367Z,1.00
2022-11-14T15:49:23.199Z,1.00
2022-11-14T15:51:55.937Z,1.00
2022-11-14T15:54:31.151Z,1.00
2022-11-14T15:57:03.188Z,1.00
2022-11-14T15:59:32.026Z,1.00
2022-11-14T16:02:11.194Z,1.00
2022-11-14T16:04:44.583Z,1.00
2022-11-14T16:07:18.208Z,1.00
2022-11-14T16:09:47.354Z,1.00
2022-11-14T16:12:17.082Z,1.00
2022-11-14T16:14:45.575Z,1.00
2022-11-14T16:17:16.217Z,1.00
2022-11-14T16:19:45.123Z,1.00
2022-11-14T16:22:17.818Z,1.00
2022-11-14T16:24:46.210Z,1.00
2022-11-14T16:27:15.742Z,1.00
2022-11-14T16:29:44.011Z,1.00
2022-11-14T16:32:12.455Z,1.00
2022-11-14T16:34:40.579Z,1.00
2022-11-14T16:37:14.251Z,1.00
2022-11-14T16:39:42.431Z,1.00
2022-11-14T16:42:12.475Z,1.00
2022-11-14T16:44:46.448Z,1.00
2022-11-14T16:47:19.780Z,1.00
2022-11-14T16:49:47.987Z,1.00
2022-11-14T16:52:17.058Z,1.00
2022-11-14T16:54:45.224Z,1.00
2022-11-14T16:57:13.774Z,1.00
2022-11-14T16:59:43.290Z,1.00
2022-11-14T17:02:16.588Z,1.00
2022-11-14T17:04:45.825Z,1.00
2022-11-14T17:07:17.725Z,1.00
2022-11-14T17:09:50.416Z,1.00
2022-11-14T17:12:18.601Z,1.00
2022-11-14T17:14:48.127Z,1.00
2022-11-14T17:17:16.262Z,1.00
2022-11-14T17:19:46.064Z,1.00
2022-11-14T17:22:15.218Z,1.00
2022-11-14T17:24:44.238Z,1.00
2022-11-14T17:27:13.766Z,1.00
2022-11-14T17:29:42.023Z,1.00
2022-11-14T17:32:11.582Z,1.00
2022-11-14T17:34:39.744Z,1.00
2022-11-14T17:37:07.872Z,1.00
2022-11-14T17:39:36.051Z,1.00
2022-11-14T17:42:04.296Z,1.00
2022-11-14T17:44:32.453Z,1.00
2022-11-14T17:47:00.974Z,1.00
2022-11-14T17:49:31.952Z,1.00
2022-11-14T17:52:00.097Z,1.00
2022-11-14T17:54:28.292Z,1.00
2022-11-14T17:56:57.471Z,1.00
2022-11-14T17:59:25.683Z,1.00
2022-11-14T18:01:55.906Z,1.00
2022-11-14T18:04:24.148Z,1.00
2022-11-14T18:06:54.239Z,1.00
2022-11-14T18:09:22.943Z,1.00
2022-11-14T18:11:51.106Z,1.00
2022-11-14T18:14:19.292Z,1.00
2022-11-14T18:17:11.171Z,1.00
2022-11-14T18:19:36.667Z,1.00
2022-11-14T18:22:07.187Z,1.00
2022-11-14T18:24:35.324Z,1.00
2022-11-14T18:27:03.575Z,1.00
2022-11-14T18:29:31.691Z,1.00
2022-11-14T18:31:59.817Z,1.00
2022-11-14T18:34:28.108Z,1.00
2022-11-14T18:36:56.265Z,1.00
2022-11-14T18:39:26.462Z,1.00
2022-11-14T18:41:54.601Z,1.00
2022-11-14T18:44:24.182Z,1.00
2022-11-14T18:46:52.486Z,1.00
2022-11-14T18:49:21.022Z,1.00
2022-11-14T18:51:49.333Z,1.00
2022-11-14T18:54:18.834Z,1.00
2022-11-14T18:56:48.380Z,1.00
2022-11-14T18:59:16.519Z,1.00
2022-11-14T19:01:45.009Z,1.00
2022-11-14T19:04:17.156Z,1.00
2022-11-14T19:06:45.358Z,1.00
2022-11-14T19:09:18.250Z,1.00
2022-11-14T19:12:05.234Z,1.00
2022-11-14T19:14:33.918Z,1.00
2022-11-14T19:17:02.546Z,1.00
2022-11-14T19:19:31.144Z,1.00
2022-11-14T19:21:59.386Z,1.00
2022-11-14T19:24:27.506Z,1.00
2022-11-14T19:26:57.698Z,1.00
2022-11-14T19:29:25.829Z,1.00
2022-11-14T19:31:54.539Z,1.00
2022-11-14T19:34:22.700Z,1.00
2022-11-14T19:36:59.762Z,1.00
2022-11-14T19:39:28.731Z,1.00
2022-11-14T19:41:58.367Z,1.00
2022-11-14T19:44:26.723Z,1.00
2022-11-14T19:46:54.863Z,1.00
2022-11-14T19:49:23.056Z,1.00
2022-11-14T19:51:51.286Z,1.00
2022-11-14T19:54:19.501Z,1.00
2022-11-14T19:56:47.622Z,1.00
2022-11-14T19:59:21.562Z,1.00
2022-11-14T20:01:55.136Z,1.00
2022-11-14T20:04:24.007Z,1.00
2022-11-14T20:06:52.641Z,1.00
2022-11-14T20:09:20.924Z,1.00
2022-11-14T20:11:49.309Z,1.00
2022-11-14T20:14:19.474Z,1.00
2022-11-14T20:16:47.762Z,1.00
2022-11-14T20:19:16.428Z,2.50
2022-11-14T20:21:44.654Z,5.10
2022-11-14T20:24:15.338Z,6.20
2022-11-14T20:26:43.606Z,7.70
2022-11-14T20:29:11.850Z,10.00
2022-11-14T20:31:41.435Z,11.00
2022-11-14T20:34:12.583Z,14.10
2022-11-14T20:37:09.216Z,16.60
2022-11-14T20:39:29.470Z,18.40
2022-11-14T20:41:57.703Z,23.50
2022-11-14T20:44:26.282Z,25.80
2022-11-14T20:46:56.873Z,27.30
2022-11-14T20:49:25.097Z,27.30
2022-11-14T20:51:53.384Z,25.40
2022-11-14T20:54:21.646Z,26.20
2022-11-14T20:56:49.855Z,31.20
2022-11-14T20:59:18.025Z,35.20
2022-11-14T21:01:46.293Z,36.00
2022-11-14T21:04:15.854Z,36.10
2022-11-14T21:06:44.126Z,40.40
2022-11-14T21:09:12.396Z,43.20
2022-11-14T21:11:40.582Z,45.70
2022-11-14T21:14:09.128Z,44.10
2022-11-14T21:16:40.599Z,44.10
2022-11-14T21:19:08.982Z,43.20
2022-11-14T21:21:39.568Z,41.10
2022-11-14T21:24:08.758Z,38.10
2022-11-14T21:26:39.949Z,36.10
2022-11-14T21:29:12.569Z,36.00
2022-11-14T21:31:44.484Z,34.80
2022-11-14T21:34:15.286Z,36.10
2022-11-14T21:36:46.910Z,36.50
2022-11-14T21:39:17.691Z,36.40
2022-11-14T21:41:48.366Z,38.80
2022-11-14T21:44:18.891Z,41.90
2022-11-14T21:46:48.572Z,41.80
2022-11-14T21:49:17.624Z,41.50
2022-11-14T21:51:48.314Z,40.20
2022-11-14T21:54:16.668Z,39.60
2022-11-14T21:56:44.815Z,38.60
2022-11-14T21:59:18.579Z,38.90
